createdAt,value
2022-11-12T00:01:14.356Z,103261.16
2022-11-12T00:03:15.942Z,103257.69
2022-11-12T00:05:17.575Z,103255.97
2022-11-12T00:07:19.046Z,103262.03
2022-11-12T00:09:20.490Z,103266.44
2022-11-12T00:11:21.929Z,103263.81
2022-11-12T00:13:23.368Z,103270.75
2022-11-12T00:15:26.207Z,103269.81
2022-11-12T00:17:27.762Z,103272.34
2022-11-12T00:19:29.183Z,103279.34
2022-11-12T00:21:30.644Z,103273.22
2022-11-12T00:23:32.073Z,103285.44
2022-11-12T00:25:33.547Z,103278.41
2022-11-12T00:27:35.652Z,103281.88
2022-11-12T00:29:38.818Z,103271.25
2022-11-12T00:31:40.251Z,103269.41
2022-11-12T00:33:42.982Z,103277.91
2022-11-12T00:35:44.440Z,103275.97
2022-11-12T00:37:45.853Z,103276.81
2022-11-12T00:39:47.328Z,103293.44
2022-11-12T00:41:48.761Z,103282.94
2022-11-12T00:43:50.224Z,103294.13
2022-11-12T00:45:51.773Z,103281.72
2022-11-12T00:47:57.013Z,103276.34
2022-11-12T00:49:58.425Z,103276.19
2022-11-12T00:51:59.848Z,103283.22
2022-11-12T00:54:01.445Z,103281.59
2022-11-12T00:56:06.761Z,103269.44
2022-11-12T00:58:08.214Z,103281.63
2022-11-12T01:00:15.390Z,103277.22
2022-11-12T01:02:16.810Z,103276.25
2022-11-12T01:04:18.288Z,103280.53
2022-11-12T01:06:22.057Z,103278.72
2022-11-12T01:08:24.353Z,103274.25
2022-11-12T01:10:26.150Z,103276.72
2022-11-12T01:12:27.568Z,103281.97
2022-11-12T01:14:29.034Z,103284.56
2022-11-12T01:16:34.455Z,103287.19
2022-11-12T01:18:36.207Z,103279.28
2022-11-12T01:20:39.353Z,103282.75
2022-11-12T01:22:40.776Z,103286.16
2022-11-12T01:24:42.186Z,103274.72
2022-11-12T01:26:43.606Z,103278.25
2022-11-12T01:28:45.063Z,103278.09
2022-11-12T01:30:46.509Z,103274.53
2022-11-12T01:32:48.519Z,103282.34
2022-11-12T01:34:51.137Z,103285.84
2022-11-12T01:36:52.599Z,103272.66
2022-11-12T01:38:55.475Z,103270.72
2022-11-12T01:40:56.918Z,103267.94
2022-11-12T01:42:58.327Z,103269.63
2022-11-12T01:44:59.792Z,103283.53
2022-11-12T01:47:19.562Z,103277.34
2022-11-12T01:49:31.450Z,103276.31
2022-11-12T01:51:42.554Z,103283.22
2022-11-12T01:53:49.613Z,103282.25
2022-11-12T01:55:52.858Z,103284.78
2022-11-12T01:58:10.594Z,103283.88
2022-11-12T02:00:13.794Z,103284.78
2022-11-12T02:02:15.227Z,103283.94
2022-11-12T02:04:17.429Z,103281.38
2022-11-12T02:06:20.307Z,103288.38
2022-11-12T02:08:23.504Z,103291.66
2022-11-12T02:10:25.632Z,103289.78
2022-11-12T02:12:45.869Z,103281.88
2022-11-12T02:14:47.355Z,103274.78
2022-11-12T02:16:49.248Z,103279.13
2022-11-12T02:18:50.687Z,103283.50
2022-11-12T02:21:03.124Z,103277.41
2022-11-12T02:23:07.032Z,103276.44
2022-11-12T02:25:12.962Z,103275.50
2022-11-12T02:27:14.523Z,103279.84
2022-11-12T02:29:15.955Z,103279.00
2022-11-12T02:31:17.419Z,103273.63
2022-11-12T02:33:18.819Z,103274.38
2022-11-12T02:35:20.236Z,103268.28
2022-11-12T02:37:21.681Z,103277.00
2022-11-12T02:39:23.096Z,103278.72
2022-11-12T02:41:24.597Z,103269.06
2022-11-12T02:43:26.121Z,103267.03
2022-11-12T02:45:28.130Z,103270.44
2022-11-12T02:47:29.679Z,103272.22
2022-11-12T02:49:31.127Z,103277.50
2022-11-12T02:51:32.616Z,103268.00
2022-11-12T02:53:34.598Z,103270.59
2022-11-12T02:55:36.069Z,103261.00
2022-11-12T02:57:38.861Z,103259.94
2022-11-12T02:59:40.277Z,103262.31
2022-11-12T03:01:41.738Z,103267.50
2022-11-12T03:03:43.338Z,103271.00
2022-11-12T03:05:46.036Z,103271.03
2022-11-12T03:07:47.458Z,103268.25
2022-11-12T03:09:48.876Z,103263.94
2022-11-12T03:11:50.350Z,103263.94
2022-11-12T03:13:51.804Z,103267.38
2022-11-12T03:16:00.578Z,103264.69
2022-11-12T03:18:01.976Z,103267.78
2022-11-12T03:20:03.710Z,103276.38
2022-11-12T03:22:05.123Z,103278.09
2022-11-12T03:24:06.819Z,103279.00
2022-11-12T03:26:08.264Z,103287.66
2022-11-12T03:28:12.589Z,103286.84
2022-11-12T03:30:14.048Z,103285.13
2022-11-12T03:32:15.455Z,103284.09
2022-11-12T03:34:17.063Z,103285.75
2022-11-12T03:36:18.552Z,103284.03
2022-11-12T03:38:19.989Z,103281.31
2022-11-12T03:40:22.114Z,103276.81
2022-11-12T03:42:23.548Z,103279.41
2022-11-12T03:44:24.968Z,103286.41
2022-11-12T03:46:26.421Z,103275.91
2022-11-12T03:48:28.195Z,103275.84
2022-11-12T03:50:30.432Z,103270.44
2022-11-12T03:52:31.834Z,103280.72
2022-11-12T03:54:33.393Z,103288.63
2022-11-12T03:56:34.843Z,103286.00
2022-11-12T03:58:36.261Z,103276.97
2022-11-12T04:00:37.708Z,103273.16
2022-11-12T04:02:39.129Z,103276.59
2022-11-12T04:04:58.842Z,103280.97
2022-11-12T04:07:20.524Z,103268.88
2022-11-12T04:09:21.979Z,103266.19
2022-11-12T04:11:23.769Z,103262.56
2022-11-12T04:13:28.687Z,103274.69
2022-11-12T04:15:30.104Z,103275.63
2022-11-12T04:17:50.074Z,103274.81
2022-11-12T04:20:09.832Z,103274.81
2022-11-12T04:22:11.826Z,103272.19
2022-11-12T04:24:33.214Z,103267.03
2022-11-12T04:26:34.644Z,103272.31
2022-11-12T04:28:36.063Z,103268.88
2022-11-12T04:30:37.490Z,103275.81
2022-11-12T04:32:45.727Z,103280.03
2022-11-12T04:34:47.202Z,103278.13
2022-11-12T04:36:48.733Z,103285.94
2022-11-12T04:38:50.169Z,103284.22
2022-11-12T04:41:09.883Z,103285.06
2022-11-12T04:43:32.498Z,103276.97
2022-11-12T04:45:42.585Z,103291.75
2022-11-12T04:47:44.064Z,103278.72
2022-11-12T04:49:45.476Z,103270.81
2022-11-12T04:52:04.901Z,103271.69
2022-11-12T04:54:06.324Z,103283.09
2022-11-12T04:56:07.799Z,103277.75
2022-11-12T04:58:09.345Z,103270.63
2022-11-12T05:00:11.653Z,103276.44
2022-11-12T05:02:13.364Z,103276.19
2022-11-12T05:04:14.823Z,103283.13
2022-11-12T05:06:34.873Z,103291.97
2022-11-12T05:08:36.301Z,103283.13
2022-11-12T05:10:37.811Z,103291.59
2022-11-12T05:12:39.388Z,103289.72
2022-11-12T05:14:40.865Z,103292.41
2022-11-12T05:16:42.650Z,103284.66
2022-11-12T05:18:44.059Z,103279.13
2022-11-12T05:20:45.596Z,103271.81
2022-11-12T05:23:04.423Z,103275.13
2022-11-12T05:25:08.666Z,103282.13
2022-11-12T05:27:16.250Z,103281.38
2022-11-12T05:29:18.421Z,103272.53
2022-11-12T05:31:19.927Z,103274.88
2022-11-12T05:33:22.006Z,103268.84
2022-11-12T05:35:23.443Z,103276.78
2022-11-12T05:37:24.924Z,103276.91
2022-11-12T05:39:26.605Z,103273.41
2022-11-12T05:41:32.891Z,103267.06
2022-11-12T05:43:46.564Z,103267.88
2022-11-12T05:45:48.006Z,103272.41
2022-11-12T05:47:49.419Z,103268.06
2022-11-12T05:49:50.856Z,103269.66
2022-11-12T05:51:52.327Z,103271.19
2022-11-12T05:53:53.739Z,103278.13
2022-11-12T05:56:00.548Z,103287.78
2022-11-12T05:58:06.579Z,103301.03
2022-11-12T06:00:08.898Z,103286.06
2022-11-12T06:02:10.377Z,103291.84
2022-11-12T06:04:13.141Z,103295.03
2022-11-12T06:06:14.903Z,103300.19
2022-11-12T06:08:16.463Z,103306.41
2022-11-12T06:10:20.636Z,103306.47
2022-11-12T06:12:22.279Z,103291.53
2022-11-12T06:14:23.694Z,103286.84
2022-11-12T06:16:25.143Z,103286.78
2022-11-12T06:18:26.780Z,103302.72
2022-11-12T06:20:28.396Z,103302.97
2022-11-12T06:22:29.868Z,103297.84
2022-11-12T06:24:34.929Z,103293.31
2022-11-12T06:26:37.989Z,103292.94
2022-11-12T06:28:39.505Z,103291.09
2022-11-12T06:30:40.952Z,103292.13
2022-11-12T06:32:42.445Z,103299.28
2022-11-12T06:34:43.882Z,103302.78
2022-11-12T06:36:45.343Z,103293.84
2022-11-12T06:38:47.221Z,103289.38
2022-11-12T06:40:48.673Z,103293.63
2022-11-12T06:42:56.678Z,103304.19
2022-11-12T06:44:58.102Z,103311.38
2022-11-12T06:46:59.518Z,103313.22
2022-11-12T06:49:00.938Z,103305.38
2022-11-12T06:51:07.603Z,103292.13
2022-11-12T06:53:09.063Z,103292.94
2022-11-12T06:55:10.530Z,103301.72
2022-11-12T06:57:11.998Z,103302.78
2022-11-12T06:59:13.465Z,103305.53
2022-11-12T07:01:17.175Z,103299.28
2022-11-12T07:03:18.741Z,103299.13
2022-11-12T07:05:20.173Z,103309.53
2022-11-12T07:07:21.782Z,103327.06
2022-11-12T07:09:23.309Z,103335.09
2022-11-12T07:11:24.802Z,103320.22
2022-11-12T07:13:26.301Z,103319.09
2022-11-12T07:15:27.743Z,103319.03
2022-11-12T07:17:29.170Z,103322.69
2022-11-12T07:19:30.651Z,103333.38
2022-11-12T07:21:32.118Z,103337.91
2022-11-12T07:23:35.665Z,103337.09
2022-11-12T07:25:37.111Z,103327.47
2022-11-12T07:27:38.659Z,103334.53
2022-11-12T07:29:47.979Z,103337.41
2022-11-12T07:31:50.065Z,103333.34
2022-11-12T07:33:51.716Z,103346.78
2022-11-12T07:35:59.032Z,103349.66
2022-11-12T07:38:00.532Z,103342.88
2022-11-12T07:40:03.701Z,103345.75
2022-11-12T07:42:05.194Z,103352.94
2022-11-12T07:44:06.836Z,103347.09
2022-11-12T07:46:11.380Z,103344.63
2022-11-12T07:48:12.930Z,103347.28
2022-11-12T07:50:14.608Z,103351.69
2022-11-12T07:52:16.110Z,103346.53
2022-11-12T07:54:17.571Z,103345.69
2022-11-12T07:56:21.136Z,103343.97
2022-11-12T07:58:23.906Z,103343.09
2022-11-12T08:00:25.594Z,103347.28
2022-11-12T08:02:27.049Z,103350.78
2022-11-12T08:04:28.536Z,103350.78
2022-11-12T08:06:31.367Z,103346.72
2022-11-12T08:08:32.846Z,103349.50
2022-11-12T08:10:34.320Z,103354.97
2022-11-12T08:12:35.741Z,103369.22
2022-11-12T08:14:37.165Z,103365.97
2022-11-12T08:16:38.610Z,103362.78
2022-11-12T08:18:40.227Z,103353.47
2022-11-12T08:20:41.932Z,103348.47
2022-11-12T08:22:48.925Z,103353.06
2022-11-12T08:24:50.750Z,103355.78
2022-11-12T08:26:52.181Z,103354.28
2022-11-12T08:28:53.620Z,103364.19
2022-11-12T08:30:55.488Z,103359.19
2022-11-12T08:33:01.742Z,103355.16
2022-11-12T08:35:03.523Z,103347.53
2022-11-12T08:37:04.977Z,103355.63
2022-11-12T08:39:07.793Z,103361.06
2022-11-12T08:41:11.969Z,103356.88
2022-11-12T08:43:13.493Z,103351.88
2022-11-12T08:45:14.951Z,103352.16
2022-11-12T08:47:16.428Z,103345.38
2022-11-12T08:49:17.934Z,103358.84
2022-11-12T08:51:19.814Z,103360.78
2022-11-12T08:53:23.269Z,103366.25
2022-11-12T08:55:24.712Z,103361.25
2022-11-12T08:57:26.126Z,103369.31
2022-11-12T08:59:27.536Z,103359.97
2022-11-12T09:01:29.529Z,103361.94
2022-11-12T09:03:31.028Z,103357.81
2022-11-12T09:05:34.091Z,103366.81
2022-11-12T09:07:49.468Z,103368.84
2022-11-12T09:09:51.991Z,103376.06
2022-11-12T09:11:53.446Z,103379.78
2022-11-12T09:13:55.171Z,103378.25
2022-11-12T09:16:01.498Z,103381.97
2022-11-12T09:18:05.780Z,103383.06
2022-11-12T09:20:07.549Z,103378.09
2022-11-12T09:22:09.064Z,103381.91
2022-11-12T09:24:10.503Z,103385.66
2022-11-12T09:26:11.965Z,103390.44
2022-11-12T09:28:15.767Z,103388.88
2022-11-12T09:30:17.283Z,103391.72
2022-11-12T09:32:18.743Z,103380.53
2022-11-12T09:34:20.300Z,103385.13
2022-11-12T09:36:21.730Z,103375.72
2022-11-12T09:38:23.359Z,103371.47
2022-11-12T09:40:50.216Z,103380.44
2022-11-12T09:42:56.041Z,103378.06
2022-11-12T09:45:04.056Z,103381.78
2022-11-12T09:47:19.288Z,103372.44
2022-11-12T09:49:36.263Z,103375.38
2022-11-12T09:51:55.621Z,103372.28
2022-11-12T09:53:59.940Z,103364.75
2022-11-12T09:56:06.247Z,103365.84
2022-11-12T09:58:16.156Z,103376.56
2022-11-12T10:00:19.631Z,103376.66
2022-11-12T10:02:27.292Z,103375.03
2022-11-12T10:04:28.676Z,103373.47
2022-11-12T10:06:38.375Z,103372.88
2022-11-12T10:08:42.889Z,103369.63
2022-11-12T10:10:48.514Z,103363.66
2022-11-12T10:13:27.322Z,103370.91
2022-11-12T10:15:51.346Z,103372.88
2022-11-12T10:18:07.037Z,103377.63
2022-11-12T10:20:33.526Z,103370.94
2022-11-12T10:23:06.031Z,103369.66
2022-11-12T10:25:16.044Z,103366.63
2022-11-12T10:27:26.210Z,103367.03
2022-11-12T10:29:50.604Z,103367.44
2022-11-12T10:31:52.039Z,103368.69
2022-11-12T10:34:21.527Z,103372.44
2022-11-12T10:36:35.782Z,103374.34
2022-11-12T10:38:38.510Z,103376.97
2022-11-12T10:40:41.730Z,103376.09
2022-11-12T10:43:19.862Z,103370.06
2022-11-12T10:45:23.060Z,103371.88
2022-11-12T10:47:26.210Z,103368.41
2022-11-12T10:49:27.723Z,103360.53
2022-11-12T10:51:30.648Z,103365.88
2022-11-12T10:53:32.027Z,103357.94
2022-11-12T10:55:38.893Z,103370.19
2022-11-12T10:57:40.520Z,103369.25
2022-11-12T10:59:41.952Z,103372.72
2022-11-12T11:01:46.071Z,103371.84
2022-11-12T11:03:55.806Z,103372.78
2022-11-12T11:06:22.204Z,103371.13
2022-11-12T11:08:44.146Z,103373.81
2022-11-12T11:10:45.625Z,103379.09
2022-11-12T11:12:47.066Z,103371.16
2022-11-12T11:15:07.400Z,103372.06
2022-11-12T11:17:18.460Z,103373.81
2022-11-12T11:19:20.725Z,103368.56
2022-11-12T11:21:47.128Z,103375.69
2022-11-12T11:23:55.195Z,103371.34
2022-11-12T11:26:00.000Z,103376.69
2022-11-12T11:28:07.520Z,103377.69
2022-11-12T11:30:12.155Z,103368.19
2022-11-12T11:32:23.290Z,103369.25
2022-11-12T11:34:27.628Z,103366.03
2022-11-12T11:36:47.503Z,103363.66
2022-11-12T11:38:54.680Z,103359.44
2022-11-12T11:41:12.294Z,103344.59
2022-11-12T11:43:34.206Z,103338.50
2022-11-12T11:45:54.465Z,103335.09
2022-11-12T11:48:11.361Z,103333.38
2022-11-12T11:50:19.931Z,103336.91
2022-11-12T11:52:42.735Z,103332.50
2022-11-12T11:54:56.411Z,103337.84
2022-11-12T11:57:01.953Z,103319.34
2022-11-12T11:59:21.355Z,103314.94
2022-11-12T12:01:31.925Z,103310.56
2022-11-12T12:03:53.625Z,103304.47
2022-11-12T12:06:36.679Z,103312.09
2022-11-12T12:08:45.525Z,103313.47
2022-11-12T12:13:35.761Z,103313.25
2022-11-12T12:15:42.971Z,103317.69
2022-11-12T12:18:01.114Z,103319.41
2022-11-12T12:20:30.507Z,103307.94
2022-11-12T12:22:40.553Z,103308.75
2022-11-12T12:24:52.927Z,103304.28
2022-11-12T12:27:00.387Z,103301.47
2022-11-12T12:29:15.265Z,103303.03
2022-11-12T12:31:22.528Z,103297.75
2022-11-12T12:33:30.278Z,103302.19
2022-11-12T12:35:36.600Z,103299.63
2022-11-12T12:37:50.125Z,103291.59
2022-11-12T12:40:25.060Z,103294.03
2022-11-12T12:42:32.031Z,103295.75
2022-11-12T12:45:05.677Z,103290.63
2022-11-12T12:47:12.074Z,103289.03
2022-11-12T12:49:18.934Z,103289.16
2022-11-12T12:51:21.982Z,103291.91
2022-11-12T12:53:29.647Z,103296.13
2022-11-12T12:55:51.881Z,103291.81
2022-11-12T12:57:59.280Z,103281.34
2022-11-12T13:00:31.431Z,103286.69
2022-11-12T13:02:38.200Z,103284.09
2022-11-12T13:04:58.246Z,103279.75
2022-11-12T13:06:59.858Z,103281.56
2022-11-12T13:09:17.704Z,103278.09
2022-11-12T13:12:01.163Z,103285.22
2022-11-12T13:14:31.545Z,103277.34
2022-11-12T13:16:51.277Z,103272.09
2022-11-12T13:18:52.690Z,103270.28
2022-11-12T13:21:15.791Z,103268.47
2022-11-12T13:24:07.417Z,103274.56
2022-11-12T13:26:52.287Z,103277.19
2022-11-12T13:29:39.144Z,103275.44
2022-11-12T13:31:40.595Z,103274.56
2022-11-12T13:33:42.298Z,103278.06
2022-11-12T13:35:43.755Z,103274.47
2022-11-12T13:37:49.698Z,103278.00
2022-11-12T13:39:51.838Z,103283.34
2022-11-12T13:42:17.547Z,103282.47
2022-11-12T13:44:19.157Z,103280.72
2022-11-12T13:46:31.400Z,103284.22
2022-11-12T13:48:59.920Z,103280.59
2022-11-12T13:51:12.853Z,103277.91
2022-11-12T13:53:20.378Z,103280.38
2022-11-12T13:55:22.910Z,103269.06
2022-11-12T13:57:28.707Z,103274.44
2022-11-12T13:59:30.156Z,103271.88
2022-11-12T14:01:32.521Z,103280.72
2022-11-12T14:03:54.286Z,103280.72
2022-11-12T14:05:56.844Z,103276.31
2022-11-12T14:08:13.654Z,103276.28
2022-11-12T14:10:29.829Z,103269.31
2022-11-12T14:12:34.430Z,103266.66
2022-11-12T14:14:54.177Z,103268.50
2022-11-12T14:17:12.716Z,103267.66
2022-11-12T14:19:55.710Z,103268.59
2022-11-12T14:22:16.850Z,103269.41
2022-11-12T14:24:18.409Z,103262.34
2022-11-12T14:26:43.078Z,103259.75
2022-11-12T14:28:44.487Z,103268.59
2022-11-12T14:30:45.970Z,103271.25
2022-11-12T14:33:01.070Z,103276.53
2022-11-12T14:35:37.072Z,103268.59
2022-11-12T14:37:43.395Z,103260.63
2022-11-12T14:39:45.373Z,103264.13
2022-11-12T14:41:49.130Z,103264.97
2022-11-12T14:44:10.894Z,103266.66
2022-11-12T14:46:25.876Z,103265.75
2022-11-12T14:48:27.719Z,103265.69
2022-11-12T14:50:37.374Z,103264.69
2022-11-12T14:52:47.743Z,103260.16
2022-11-12T14:54:54.819Z,103263.59
2022-11-12T14:56:59.368Z,103268.06
2022-11-12T14:59:01.446Z,103262.81
2022-11-12T15:03:46.219Z,103263.66
2022-11-12T15:05:55.401Z,103260.03
2022-11-12T15:08:03.763Z,103256.41
2022-11-12T15:10:28.030Z,103247.56
2022-11-12T15:12:34.427Z,103249.31
2022-11-12T15:14:36.004Z,103251.94
2022-11-12T15:16:42.762Z,103253.63
2022-11-12T15:18:44.298Z,103250.94
2022-11-12T15:20:46.104Z,103247.34
2022-11-12T15:22:52.157Z,103242.94
2022-11-12T15:24:53.677Z,103243.81
2022-11-12T15:26:57.139Z,103243.75
2022-11-12T15:29:00.152Z,103251.63
2022-11-12T15:31:17.455Z,103247.22
2022-11-12T15:33:22.617Z,103241.03
2022-11-12T15:35:26.786Z,103234.88
2022-11-12T15:37:33.486Z,103241.81
2022-11-12T15:39:42.839Z,103238.22
2022-11-12T15:41:44.302Z,103244.31
2022-11-12T15:43:45.829Z,103240.72
2022-11-12T15:45:52.361Z,103248.63
2022-11-12T15:47:53.837Z,103249.47
2022-11-12T15:49:59.139Z,103252.06
2022-11-12T15:52:00.575Z,103240.56
2022-11-12T15:54:02.001Z,103237.84
2022-11-12T15:56:05.298Z,103240.31
2022-11-12T15:58:11.975Z,103234.09
2022-11-12T16:00:15.402Z,103234.91
2022-11-12T16:02:16.970Z,103240.94
2022-11-12T16:04:18.383Z,103235.56
2022-11-12T16:06:19.867Z,103240.69
2022-11-12T16:08:21.295Z,103240.53
2022-11-12T16:10:22.737Z,103235.28
2022-11-12T16:12:24.611Z,103236.13
2022-11-12T16:14:27.017Z,103243.09
2022-11-12T16:16:28.530Z,103249.19
2022-11-12T16:18:29.965Z,103249.16
2022-11-12T16:20:34.149Z,103239.41
2022-11-12T16:22:35.567Z,103236.72
2022-11-12T16:24:37.013Z,103229.63
2022-11-12T16:26:38.557Z,103227.78
2022-11-12T16:28:40.085Z,103225.09
2022-11-12T16:30:42.221Z,103224.97
2022-11-12T16:32:44.216Z,103230.16
2022-11-12T16:34:45.672Z,103228.28
2022-11-12T16:36:47.594Z,103227.31
2022-11-12T16:38:49.074Z,103226.31
2022-11-12T16:40:50.513Z,103232.38
2022-11-12T16:42:52.219Z,103225.25
2022-11-12T16:44:53.627Z,103228.72
2022-11-12T16:46:55.084Z,103233.03
2022-11-12T16:48:56.898Z,103229.44
2022-11-12T16:50:59.472Z,103226.75
2022-11-12T16:53:00.906Z,103226.66
2022-11-12T16:55:04.762Z,103230.97
2022-11-12T16:57:06.594Z,103236.19
2022-11-12T16:59:11.943Z,103221.16
2022-11-12T17:01:34.293Z,103222.75
2022-11-12T17:03:35.734Z,103221.84
2022-11-12T17:05:37.155Z,103226.25
2022-11-12T17:07:38.588Z,103223.59
2022-11-12T17:09:40.046Z,103223.63
2022-11-12T17:11:41.490Z,103221.84
2022-11-12T17:13:43.748Z,103213.00
2022-11-12T17:15:45.175Z,103218.19
2022-11-12T17:17:46.624Z,103204.94
2022-11-12T17:19:48.110Z,103209.25
2022-11-12T17:21:49.741Z,103212.66
2022-11-12T17:23:54.287Z,103213.44
2022-11-12T17:26:03.672Z,103209.91
2022-11-12T17:28:05.113Z,103207.09
2022-11-12T17:30:07.080Z,103212.28
2022-11-12T17:32:08.513Z,103213.09
2022-11-12T17:34:10.137Z,103210.41
2022-11-12T17:36:15.066Z,103214.72
2022-11-12T17:38:16.516Z,103211.97
2022-11-12T17:40:18.010Z,103202.19
2022-11-12T17:42:19.436Z,103211.78
2022-11-12T17:44:20.933Z,103206.47
2022-11-12T17:46:22.525Z,103213.38
2022-11-12T17:48:24.822Z,103214.19
2022-11-12T17:50:27.462Z,103212.34
2022-11-12T17:52:29.003Z,103214.00
2022-11-12T17:54:30.461Z,103220.03
2022-11-12T17:56:36.956Z,103207.75
2022-11-12T17:58:38.892Z,103202.41
2022-11-12T18:00:40.360Z,103200.47
2022-11-12T18:02:41.786Z,103198.66
2022-11-12T18:04:43.212Z,103194.22
2022-11-12T18:06:44.784Z,103188.91
2022-11-12T18:08:46.553Z,103192.38
2022-11-12T18:10:47.979Z,103195.03
2022-11-12T18:12:51.605Z,103187.13
2022-11-12T18:14:53.035Z,103189.75
2022-11-12T18:16:54.479Z,103193.19
2022-11-12T18:18:57.207Z,103185.28
2022-11-12T18:20:58.657Z,103183.53
2022-11-12T18:23:00.376Z,103188.78
2022-11-12T18:25:01.840Z,103186.88
2022-11-12T18:27:03.429Z,103187.63
2022-11-12T18:29:05.301Z,103192.78
2022-11-12T18:31:07.444Z,103191.91
2022-11-12T18:33:08.949Z,103194.50
2022-11-12T18:35:10.498Z,103197.00
2022-11-12T18:37:12.227Z,103193.44
2022-11-12T18:39:14.740Z,103197.78
2022-11-12T18:41:17.567Z,103189.84
2022-11-12T18:43:18.987Z,103188.94
2022-11-12T18:45:20.451Z,103182.69
2022-11-12T18:47:21.961Z,103184.28
2022-11-12T18:49:23.437Z,103180.75
2022-11-12T18:51:24.992Z,103181.63
2022-11-12T18:53:31.400Z,103185.13
2022-11-12T18:55:32.851Z,103185.13
2022-11-12T18:57:34.351Z,103181.59
2022-11-12T18:59:35.773Z,103179.72
2022-11-12T19:01:37.366Z,103173.47
2022-11-12T19:03:38.802Z,103176.72
2022-11-12T19:05:40.174Z,103165.19
2022-11-12T19:07:41.524Z,103173.03
2022-11-12T19:09:42.886Z,103173.81
2022-11-12T19:11:44.254Z,103180.75
2022-11-12T19:13:45.580Z,103169.31
2022-11-12T19:15:47.024Z,103170.09
2022-11-12T19:17:48.375Z,103167.31
2022-11-12T19:19:49.698Z,103161.09
2022-11-12T19:21:51.035Z,103166.31
2022-11-12T19:23:54.613Z,103162.75
2022-11-12T19:25:56.623Z,103151.38
2022-11-12T19:27:57.963Z,103152.22
2022-11-12T19:30:02.869Z,103147.75
2022-11-12T19:32:04.811Z,103144.22
2022-11-12T19:34:06.220Z,103136.31
2022-11-12T19:36:08.718Z,103147.69
2022-11-12T19:38:10.414Z,103139.00
2022-11-12T19:40:11.867Z,103132.03
2022-11-12T19:42:13.283Z,103136.38
2022-11-12T19:44:14.716Z,103142.47
2022-11-12T19:46:16.479Z,103146.78
2022-11-12T19:48:17.792Z,103138.91
2022-11-12T19:50:24.318Z,103145.91
2022-11-12T19:52:26.445Z,103134.59
2022-11-12T19:54:27.785Z,103132.84
2022-11-12T19:56:30.543Z,103127.63
2022-11-12T19:58:32.422Z,103138.06
2022-11-12T20:00:33.891Z,103124.91
2022-11-12T20:02:35.435Z,103131.88
2022-11-12T20:04:36.766Z,103131.00
2022-11-12T20:06:38.566Z,103127.50
2022-11-12T20:08:40.328Z,103125.75
2022-11-12T20:10:41.680Z,103124.88
2022-11-12T20:12:43.084Z,103131.88
2022-11-12T20:14:44.410Z,103129.28
2022-11-12T20:16:45.809Z,103122.28
2022-11-12T20:18:50.857Z,103128.41
2022-11-12T20:20:57.014Z,103131.03
2022-11-12T20:22:58.365Z,103132.81
2022-11-12T20:24:59.777Z,103124.13
2022-11-12T20:27:01.239Z,103128.41
2022-11-12T20:29:02.581Z,103126.69
2022-11-12T20:31:05.470Z,103124.03
2022-11-12T20:33:06.975Z,103116.13
2022-11-12T20:35:15.197Z,103118.75
2022-11-12T20:37:22.556Z,103109.94
2022-11-12T20:39:23.885Z,103112.56
2022-11-12T20:41:26.143Z,103117.69
2022-11-12T20:43:29.263Z,103122.00
2022-11-12T20:45:30.857Z,103128.00
2022-11-12T20:47:32.163Z,103122.72
2022-11-12T20:50:08.294Z,103125.34
2022-11-12T20:52:58.088Z,103119.25
2022-11-12T20:54:59.534Z,103120.19
2022-11-12T20:57:03.020Z,103112.31
2022-11-12T20:59:04.444Z,103119.34
2022-11-12T21:01:07.976Z,103116.75
2022-11-12T21:03:09.440Z,103116.75
2022-11-12T21:05:10.978Z,103116.81
2022-11-12T21:07:12.705Z,103119.50
2022-11-12T21:09:14.304Z,103115.16
2022-11-12T21:11:18.570Z,103116.94
2022-11-12T21:13:20.569Z,103116.94
2022-11-12T21:15:22.037Z,103116.03
2022-11-12T21:17:23.463Z,103114.19
2022-11-12T21:19:24.906Z,103117.69
2022-11-12T21:21:30.601Z,103112.41
2022-11-12T21:23:34.891Z,103109.75
2022-11-12T21:25:37.712Z,103107.06
2022-11-12T21:27:39.272Z,103107.97
2022-11-12T21:29:40.774Z,103109.75
2022-11-12T21:31:42.242Z,103113.25
2022-11-12T21:33:43.976Z,103115.88
2022-11-12T21:35:52.284Z,103117.59
2022-11-12T21:37:53.713Z,103112.31
2022-11-12T21:39:55.166Z,103108.78
2022-11-12T21:41:56.732Z,103107.03
2022-11-12T21:43:58.649Z,103103.53
2022-11-12T21:46:00.645Z,103108.78
2022-11-12T21:48:02.090Z,103102.63
2022-11-12T21:50:04.470Z,103100.81
2022-11-12T21:52:06.111Z,103102.47
2022-11-12T21:54:07.769Z,103102.38
2022-11-12T21:56:19.110Z,103105.81
2022-11-12T21:58:20.533Z,103104.88
2022-11-12T22:00:42.568Z,103104.78
2022-11-12T22:02:43.597Z,103106.47
2022-11-12T22:04:45.101Z,103106.41
2022-11-12T22:06:46.689Z,103098.56
2022-11-12T22:08:52.290Z,103100.28
2022-11-12T22:11:06.337Z,103095.91
2022-11-12T22:15:29.209Z,103101.13
2022-11-12T22:17:33.195Z,103102.91
2022-11-12T22:19:34.694Z,103103.81
2022-11-12T22:21:39.938Z,103095.16
2022-11-12T22:23:41.782Z,103099.50
2022-11-12T22:25:43.203Z,103094.31
2022-11-12T22:27:44.743Z,103090.88
2022-11-12T22:29:47.194Z,103098.78
2022-11-12T22:31:48.641Z,103092.69
2022-11-12T22:33:50.377Z,103100.59
2022-11-12T22:35:51.834Z,103101.50
2022-11-12T22:37:54.466Z,103097.19
2022-11-12T22:39:55.889Z,103094.59
2022-11-12T22:41:57.335Z,103092.88
2022-11-12T22:44:00.903Z,103092.88
2022-11-12T22:46:06.354Z,103085.00
2022-11-12T22:48:07.801Z,103084.09
2022-11-12T22:50:09.837Z,103080.53
2022-11-12T22:52:11.272Z,103075.28
2022-11-12T22:54:15.681Z,103077.06
2022-11-12T22:56:17.156Z,103069.16
2022-11-12T22:58:18.617Z,103063.84
2022-11-12T23:00:29.296Z,103071.75
2022-11-12T23:02:30.733Z,103069.09
2022-11-12T23:04:32.145Z,103062.06
2022-11-12T23:06:33.796Z,103055.94
2022-11-12T23:08:37.905Z,103057.72
2022-11-12T23:10:44.472Z,103056.78
2022-11-12T23:12:47.132Z,103060.25
2022-11-12T23:14:48.595Z,103055.00
2022-11-12T23:16:50.045Z,103054.13
2022-11-12T23:18:52.912Z,103052.38
2022-11-12T23:20:54.356Z,103044.50
2022-11-12T23:22:55.788Z,103047.06
2022-11-12T23:24:57.199Z,103045.28
2022-11-12T23:26:58.661Z,103048.81
2022-11-12T23:29:01.507Z,103050.50
2022-11-12T23:31:04.388Z,103042.59
2022-11-12T23:33:05.889Z,103041.75
2022-11-12T23:35:07.522Z,103053.16
2022-11-12T23:37:08.954Z,103050.53
2022-11-12T23:39:10.375Z,103054.03
2022-11-12T23:41:14.479Z,103057.53
2022-11-12T23:43:15.900Z,103060.22
2022-11-12T23:45:17.329Z,103057.63
2022-11-12T23:47:18.793Z,103057.63
2022-11-12T23:49:20.225Z,103057.63
2022-11-12T23:51:22.635Z,103050.63
2022-11-12T23:53:24.090Z,103049.78
2022-11-12T23:55:29.042Z,103036.63
2022-11-12T23:57:32.885Z,103036.63